createdAt,value
2023-12-11T00:02:20.919Z,9.71
2023-12-11T00:04:48.564Z,9.75
2023-12-11T00:07:16.309Z,9.68
2023-12-11T00:09:44.351Z,9.75
2023-12-11T00:12:13.407Z,9.86
2023-12-11T00:14:41.130Z,9.85
2023-12-11T00:17:08.935Z,9.90
2023-12-11T00:19:36.656Z,9.95
2023-12-11T00:22:04.623Z,10.14
2023-12-11T00:24:32.435Z,10.38
2023-12-11T00:27:00.225Z,10.66
2023-12-11T00:29:29.276Z,10.36
2023-12-11T00:31:56.987Z,10.46
2023-12-11T00:34:24.809Z,11.00
2023-12-11T00:36:52.550Z,10.56
2023-12-11T00:39:20.267Z,10.05
2023-12-11T00:41:47.951Z,10.24
2023-12-11T00:44:15.676Z,10.73
2023-12-11T00:46:44.791Z,9.88
2023-12-11T00:49:12.608Z,9.50
2023-12-11T00:51:40.387Z,9.06
2023-12-11T00:54:08.124Z,8.83
2023-12-11T00:56:35.851Z,8.70
2023-12-11T00:59:03.543Z,8.50
2023-12-11T01:01:31.302Z,8.45
2023-12-11T01:04:00.431Z,8.32
2023-12-11T01:06:28.162Z,8.16
2023-12-11T01:08:55.876Z,8.14
2023-12-11T01:11:23.523Z,8.21
2023-12-11T01:13:51.191Z,8.01
2023-12-11T01:16:19.019Z,8.22
2023-12-11T01:18:46.806Z,8.68
2023-12-11T01:21:15.969Z,8.75
2023-12-11T01:23:43.585Z,8.70
2023-12-11T01:26:11.241Z,8.64
2023-12-11T01:28:38.977Z,8.56
2023-12-11T01:31:06.774Z,8.26
2023-12-11T01:33:34.488Z,8.24
2023-12-11T01:36:02.224Z,8.32
2023-12-11T01:38:31.246Z,8.25
2023-12-11T01:40:58.893Z,8.11
2023-12-11T01:43:26.640Z,8.06
2023-12-11T01:46:02.510Z,8.17
2023-12-11T01:48:30.446Z,8.24
2023-12-11T01:50:58.392Z,8.09
2023-12-11T01:53:28.073Z,8.12
2023-12-11T01:55:57.865Z,7.94
2023-12-11T01:58:25.828Z,8.24
2023-12-11T02:00:53.584Z,8.18
2023-12-11T02:03:21.403Z,7.89
2023-12-11T02:05:49.921Z,7.75
2023-12-11T02:08:17.603Z,7.75
2023-12-11T02:10:45.500Z,7.65
2023-12-11T02:13:15.110Z,7.69
2023-12-11T02:15:45.432Z,7.42
2023-12-11T02:18:15.635Z,7.33
2023-12-11T02:20:45.064Z,7.59
2023-12-11T02:23:26.154Z,7.74
2023-12-11T02:26:02.841Z,7.90
2023-12-11T02:28:30.612Z,7.68
2023-12-11T02:30:58.308Z,7.87
2023-12-11T02:33:26.004Z,7.97
2023-12-11T02:35:53.726Z,7.90
2023-12-11T02:38:21.346Z,7.70
2023-12-11T02:40:49.039Z,7.66
2023-12-11T02:43:18.148Z,7.74
2023-12-11T02:45:45.982Z,7.72
2023-12-11T02:48:13.792Z,7.97
2023-12-11T02:50:41.469Z,8.28
2023-12-11T02:53:09.151Z,8.15
2023-12-11T02:55:36.992Z,8.33
2023-12-11T02:58:05.426Z,8.96
2023-12-11T03:00:34.679Z,8.31
2023-12-11T03:03:02.588Z,8.53
2023-12-11T03:05:30.576Z,8.27
2023-12-11T03:07:58.201Z,8.32
2023-12-11T03:10:25.881Z,8.77
2023-12-11T03:12:53.645Z,8.67
2023-12-11T03:15:21.487Z,8.72
2023-12-11T03:17:50.616Z,8.62
2023-12-11T03:20:18.429Z,8.31
2023-12-11T03:22:46.083Z,8.29
2023-12-11T03:25:13.907Z,8.10
2023-12-11T03:27:41.577Z,7.85
2023-12-11T03:30:09.936Z,7.82
2023-12-11T03:32:38.080Z,7.92
2023-12-11T03:35:07.863Z,7.80
2023-12-11T03:37:35.525Z,7.87
2023-12-11T03:40:03.529Z,7.90
2023-12-11T03:42:31.307Z,8.12
2023-12-11T03:44:58.960Z,8.04
2023-12-11T03:47:26.652Z,7.89
2023-12-11T03:49:54.397Z,7.87
2023-12-11T03:52:23.450Z,7.72
2023-12-11T03:54:51.086Z,7.61
2023-12-11T03:57:18.766Z,7.77
2023-12-11T03:59:46.501Z,8.12
2023-12-11T04:02:14.325Z,8.11
2023-12-11T04:04:42.245Z,7.90
2023-12-11T04:07:10.007Z,7.83
2023-12-11T04:09:39.090Z,7.51
2023-12-11T04:12:07.103Z,7.54
2023-12-11T04:14:34.769Z,7.73
2023-12-11T04:17:02.700Z,8.01
2023-12-11T04:19:30.427Z,7.74
2023-12-11T04:21:58.176Z,7.71
2023-12-11T04:24:25.839Z,7.81
2023-12-11T04:26:54.928Z,7.88
2023-12-11T04:29:22.621Z,7.83
2023-12-11T04:31:50.233Z,7.74
2023-12-11T04:34:17.976Z,8.04
2023-12-11T04:36:45.790Z,8.43
2023-12-11T04:39:13.580Z,8.28
2023-12-11T04:41:41.278Z,8.10
2023-12-11T04:44:10.286Z,8.67
2023-12-11T04:46:37.910Z,9.14
2023-12-11T04:49:05.652Z,9.34
2023-12-11T04:51:33.360Z,8.46
2023-12-11T04:54:01.009Z,8.66
2023-12-11T04:56:28.630Z,8.77
2023-12-11T04:58:56.262Z,8.36
2023-12-11T05:01:25.342Z,8.70
2023-12-11T05:03:53.210Z,9.13
2023-12-11T05:06:20.933Z,9.43
2023-12-11T05:08:48.614Z,8.72
2023-12-11T05:11:16.321Z,8.72
2023-12-11T05:13:44.099Z,8.82
2023-12-11T05:16:12.324Z,8.48
2023-12-11T05:18:41.552Z,8.36
2023-12-11T05:21:10.408Z,8.67
2023-12-11T05:23:38.510Z,8.35
2023-12-11T05:26:06.462Z,8.08
2023-12-11T05:28:34.240Z,8.06
2023-12-11T05:31:01.950Z,8.11
2023-12-11T05:33:29.784Z,8.54
2023-12-11T05:35:58.928Z,8.36
2023-12-11T05:38:26.576Z,7.97
2023-12-11T05:40:54.274Z,7.96
2023-12-11T05:43:22.002Z,7.78
2023-12-11T05:45:49.742Z,7.97
2023-12-11T05:48:17.606Z,7.86
2023-12-11T05:50:45.476Z,7.98
2023-12-11T05:53:14.475Z,8.11
2023-12-11T05:55:42.320Z,8.18
2023-12-11T05:58:10.041Z,8.09
2023-12-11T06:00:37.851Z,7.95
2023-12-11T06:03:05.632Z,8.00
2023-12-11T06:05:33.480Z,7.96
2023-12-11T06:08:01.254Z,7.83
2023-12-11T06:10:30.319Z,7.76
2023-12-11T06:12:57.956Z,7.80
2023-12-11T06:15:25.602Z,7.92
2023-12-11T06:17:53.326Z,7.93
2023-12-11T06:20:21.013Z,8.47
2023-12-11T06:22:48.665Z,8.73
2023-12-11T06:25:16.448Z,8.48
2023-12-11T06:27:45.599Z,8.17
2023-12-11T06:30:13.846Z,8.57
2023-12-11T06:32:41.543Z,8.94
2023-12-11T06:35:09.752Z,9.39
2023-12-11T06:37:37.540Z,9.06
2023-12-11T06:40:06.553Z,8.82
2023-12-11T06:42:35.246Z,8.62
2023-12-11T06:45:05.028Z,8.28
2023-12-11T06:47:32.938Z,8.03
2023-12-11T06:50:00.990Z,8.55
2023-12-11T06:52:29.116Z,8.41
2023-12-11T06:54:56.906Z,8.32
2023-12-11T06:57:24.762Z,8.03
2023-12-11T06:59:53.012Z,7.89
2023-12-11T07:02:22.157Z,7.93
2023-12-11T07:04:50.004Z,7.83
2023-12-11T07:07:17.799Z,8.08
2023-12-11T07:09:45.510Z,8.08
2023-12-11T07:12:13.220Z,7.97
2023-12-11T07:14:40.890Z,8.37
2023-12-11T07:17:08.510Z,8.09
2023-12-11T07:19:37.731Z,8.21
2023-12-11T07:22:05.546Z,8.01
2023-12-11T07:24:33.257Z,8.17
2023-12-11T07:27:00.911Z,8.07
2023-12-11T07:29:28.550Z,8.49
2023-12-11T07:31:56.232Z,8.26
2023-12-11T07:34:24.039Z,8.62
2023-12-11T07:36:53.241Z,8.78
2023-12-11T07:39:20.922Z,8.61
2023-12-11T07:41:48.577Z,8.49
2023-12-11T07:44:16.222Z,8.89
2023-12-11T07:46:43.865Z,9.06
2023-12-11T07:49:11.756Z,9.55
2023-12-11T07:51:39.556Z,8.91
2023-12-11T07:54:08.730Z,8.53
2023-12-11T07:56:36.780Z,8.58
2023-12-11T07:59:04.533Z,8.65
2023-12-11T08:01:32.455Z,8.51
2023-12-11T08:04:00.289Z,8.98
2023-12-11T08:06:28.353Z,8.99
2023-12-11T08:08:55.981Z,8.92
2023-12-11T08:11:25.294Z,9.22
2023-12-11T08:13:52.986Z,9.56
2023-12-11T08:16:21.197Z,9.02
2023-12-11T08:18:48.967Z,9.20
2023-12-11T08:21:16.832Z,9.42
2023-12-11T08:23:45.435Z,9.79
2023-12-11T08:26:17.189Z,10.12
2023-12-11T08:28:46.788Z,10.17
2023-12-11T08:31:14.731Z,10.86
2023-12-11T08:33:42.824Z,11.22
2023-12-11T08:36:11.000Z,11.40
2023-12-11T08:38:38.691Z,11.38
2023-12-11T08:41:06.577Z,11.12
2023-12-11T08:43:34.302Z,10.77
2023-12-11T08:46:03.770Z,10.25
2023-12-11T08:48:31.874Z,10.21
2023-12-11T08:50:59.610Z,10.06
2023-12-11T08:53:27.322Z,10.43
2023-12-11T08:55:55.283Z,10.94
2023-12-11T08:58:23.055Z,9.73
2023-12-11T09:00:50.954Z,9.63
2023-12-11T09:03:20.110Z,9.26
2023-12-11T09:05:47.882Z,9.31
2023-12-11T09:08:15.563Z,9.45
2023-12-11T09:10:43.232Z,10.33
2023-12-11T09:13:11.044Z,10.33
2023-12-11T09:15:38.820Z,11.12
2023-12-11T09:18:06.756Z,11.57
2023-12-11T09:20:35.980Z,11.86
2023-12-11T09:23:03.843Z,12.12
2023-12-11T09:25:31.780Z,11.59
2023-12-11T09:27:59.532Z,11.76
2023-12-11T09:30:27.273Z,11.73
2023-12-11T09:32:55.231Z,11.21
2023-12-11T09:35:23.297Z,12.17
2023-12-11T09:37:53.800Z,11.81
2023-12-11T09:40:21.854Z,12.44
2023-12-11T09:42:52.450Z,12.49
2023-12-11T09:45:20.960Z,11.88
2023-12-11T09:48:04.465Z,12.66
2023-12-11T09:50:39.156Z,12.80
2023-12-11T09:53:09.708Z,12.95
2023-12-11T09:55:37.516Z,12.70
2023-12-11T09:58:06.871Z,12.44
2023-12-11T10:00:36.702Z,12.71
2023-12-11T10:03:06.277Z,12.64
2023-12-11T10:05:34.055Z,12.95
2023-12-11T10:08:02.544Z,12.76
2023-12-11T10:10:32.325Z,12.90
2023-12-11T10:13:01.337Z,12.99
2023-12-11T10:15:30.967Z,12.91
2023-12-11T10:18:03.650Z,12.70
2023-12-11T10:20:31.998Z,12.88
2023-12-11T10:23:12.640Z,12.93
2023-12-11T10:25:45.110Z,12.83
2023-12-11T10:28:14.902Z,13.16
2023-12-11T10:30:51.617Z,13.11
2023-12-11T10:33:20.386Z,13.27
2023-12-11T10:35:49.436Z,13.34
2023-12-11T10:38:24.801Z,12.90
2023-12-11T10:40:54.524Z,13.01
2023-12-11T10:43:22.454Z,12.98
2023-12-11T10:45:52.092Z,12.85
2023-12-11T10:48:21.479Z,12.71
2023-12-11T10:50:50.137Z,12.74
2023-12-11T10:53:17.843Z,13.13
2023-12-11T10:55:49.909Z,13.07
2023-12-11T10:58:20.097Z,13.03
2023-12-11T11:00:48.311Z,13.31
2023-12-11T11:03:22.351Z,13.46
2023-12-11T11:05:53.737Z,13.65
2023-12-11T11:08:32.496Z,13.69
2023-12-11T11:11:11.432Z,13.74
2023-12-11T11:14:03.378Z,13.81
2023-12-11T11:16:52.340Z,13.92
2023-12-11T11:19:20.829Z,13.88
2023-12-11T11:22:27.219Z,13.91
2023-12-11T11:25:30.658Z,13.72
2023-12-11T11:27:59.135Z,13.74
2023-12-11T11:30:50.510Z,13.88
2023-12-11T11:33:19.567Z,13.90
2023-12-11T11:35:52.247Z,13.91
2023-12-11T11:38:22.068Z,13.97
2023-12-11T11:40:50.091Z,13.90
2023-12-11T11:43:18.688Z,13.85
2023-12-11T11:45:46.595Z,13.86
2023-12-11T11:48:15.773Z,14.04
2023-12-11T11:50:54.880Z,14.09
2023-12-11T11:53:23.614Z,14.40
2023-12-11T11:55:51.549Z,14.43
2023-12-11T11:58:19.542Z,14.51
2023-12-11T12:00:47.369Z,14.30
2023-12-11T12:03:16.541Z,14.34
2023-12-11T12:05:54.290Z,14.38
2023-12-11T12:08:22.193Z,14.24
2023-12-11T12:10:49.932Z,14.16
2023-12-11T12:13:17.920Z,14.33
2023-12-11T12:15:45.728Z,14.40
2023-12-11T12:18:14.027Z,14.37
2023-12-11T12:20:43.281Z,14.18
2023-12-11T12:23:11.251Z,14.26
2023-12-11T12:25:38.947Z,14.29
2023-12-11T12:28:09.535Z,14.28
2023-12-11T12:30:37.402Z,14.36
2023-12-11T12:33:09.916Z,14.35
2023-12-11T12:35:39.376Z,14.31
2023-12-11T12:38:09.143Z,14.05
2023-12-11T12:40:36.969Z,14.22
2023-12-11T12:43:09.951Z,14.12
2023-12-11T12:45:38.152Z,14.31
2023-12-11T12:48:06.786Z,14.27
2023-12-11T12:50:35.272Z,14.05
2023-12-11T12:53:08.890Z,13.81
2023-12-11T12:55:36.917Z,13.68
2023-12-11T12:58:04.952Z,13.69
2023-12-11T13:00:33.021Z,13.68
2023-12-11T13:03:02.252Z,14.02
2023-12-11T13:05:40.574Z,13.70
2023-12-11T13:08:09.767Z,13.54
2023-12-11T13:10:37.880Z,13.48
2023-12-11T13:13:09.670Z,13.69
2023-12-11T13:15:38.259Z,13.21
2023-12-11T13:18:06.244Z,13.36
2023-12-11T13:20:34.633Z,13.41
2023-12-11T13:23:02.647Z,13.71
2023-12-11T13:25:31.759Z,13.55
2023-12-11T13:27:59.494Z,13.78
2023-12-11T13:30:27.452Z,13.84
2023-12-11T13:32:55.166Z,13.55
2023-12-11T13:35:22.984Z,13.16
2023-12-11T13:37:50.755Z,13.08
2023-12-11T13:40:18.481Z,13.50
2023-12-11T13:42:47.547Z,13.12
2023-12-11T13:45:15.275Z,13.35
2023-12-11T13:47:43.037Z,13.18
2023-12-11T13:50:10.907Z,13.54
2023-12-11T13:52:38.800Z,13.48
2023-12-11T13:55:06.899Z,13.41
2023-12-11T13:57:35.737Z,12.73
2023-12-11T14:00:05.858Z,13.01
2023-12-11T14:02:59.408Z,13.49
2023-12-11T14:05:21.394Z,13.53
2023-12-11T14:07:49.166Z,13.41
2023-12-11T14:10:16.965Z,13.45
2023-12-11T14:12:45.038Z,13.61
2023-12-11T14:15:14.122Z,13.77
2023-12-11T14:17:41.867Z,14.24
2023-12-11T14:20:11.123Z,14.21
2023-12-11T14:22:39.187Z,14.60
2023-12-11T14:25:07.986Z,14.06
2023-12-11T14:27:35.984Z,13.92
2023-12-11T14:30:04.430Z,14.18
2023-12-11T14:32:33.575Z,14.15
2023-12-11T14:35:01.373Z,14.21
2023-12-11T14:37:29.527Z,14.28
2023-12-11T14:39:57.445Z,14.24
2023-12-11T14:42:25.144Z,13.58
2023-12-11T14:44:52.837Z,14.30
2023-12-11T14:47:20.616Z,14.13
2023-12-11T14:49:49.820Z,14.47
2023-12-11T14:52:17.866Z,14.46
2023-12-11T14:54:45.588Z,14.26
2023-12-11T14:57:13.404Z,14.34
2023-12-11T14:59:41.187Z,14.32
2023-12-11T15:02:08.965Z,14.47
2023-12-11T15:04:36.717Z,14.63
2023-12-11T15:07:06.017Z,14.90
2023-12-11T15:09:34.183Z,14.75
2023-12-11T15:12:01.963Z,13.80
2023-12-11T15:14:30.032Z,13.07
2023-12-11T15:16:58.117Z,13.19
2023-12-11T15:19:25.874Z,13.36
2023-12-11T15:21:53.702Z,13.77
2023-12-11T15:24:22.805Z,13.46
2023-12-11T15:26:50.553Z,13.30
2023-12-11T15:29:18.243Z,13.24
2023-12-11T15:31:45.939Z,13.73
2023-12-11T15:34:13.778Z,14.41
2023-12-11T15:36:41.557Z,13.47
2023-12-11T15:39:10.116Z,14.00
2023-12-11T15:41:39.139Z,13.43
2023-12-11T15:44:06.863Z,13.92
2023-12-11T15:46:34.659Z,13.44
2023-12-11T15:49:02.524Z,13.98
2023-12-11T15:51:30.327Z,14.04
2023-12-11T15:53:58.037Z,14.14
2023-12-11T15:56:25.766Z,14.14
2023-12-11T15:58:55.032Z,13.82
2023-12-11T16:01:22.815Z,13.96
2023-12-11T16:03:50.665Z,13.58
2023-12-11T16:06:18.460Z,13.54
2023-12-11T16:08:46.412Z,13.83
2023-12-11T16:11:14.668Z,13.93
2023-12-11T16:13:42.937Z,14.11
2023-12-11T16:16:13.300Z,13.69
2023-12-11T16:18:42.181Z,13.85
2023-12-11T16:21:10.216Z,14.25
2023-12-11T16:23:37.972Z,14.27
2023-12-11T16:26:12.130Z,14.14
2023-12-11T16:28:39.937Z,14.73
2023-12-11T16:31:07.915Z,14.83
2023-12-11T16:33:37.151Z,14.98
2023-12-11T16:36:11.903Z,14.36
2023-12-11T16:38:39.652Z,14.40
2023-12-11T16:41:07.472Z,14.65
2023-12-11T16:43:36.979Z,14.06
2023-12-11T16:46:05.604Z,13.92
2023-12-11T16:48:38.136Z,13.90
2023-12-11T16:51:06.188Z,14.09
2023-12-11T16:53:33.900Z,14.10
2023-12-11T16:56:01.647Z,14.09
2023-12-11T16:58:29.391Z,14.12
2023-12-11T17:00:57.099Z,14.14
2023-12-11T17:03:24.876Z,14.23
2023-12-11T17:05:53.950Z,14.05
2023-12-11T17:08:21.675Z,13.86
2023-12-11T17:10:49.562Z,13.89
2023-12-11T17:13:17.298Z,14.34
2023-12-11T17:15:45.056Z,14.34
2023-12-11T17:18:12.814Z,14.18
2023-12-11T17:20:40.549Z,14.31
2023-12-11T17:23:09.587Z,14.02
2023-12-11T17:25:37.304Z,13.32
2023-12-11T17:28:05.972Z,13.92
2023-12-11T17:30:33.822Z,13.29
2023-12-11T17:33:01.561Z,13.39
2023-12-11T17:35:29.298Z,13.81
2023-12-11T17:37:57.019Z,12.79
2023-12-11T17:40:26.120Z,12.91
2023-12-11T17:42:53.905Z,13.21
2023-12-11T17:45:24.914Z,13.50
2023-12-11T17:47:54.030Z,13.23
2023-12-11T17:50:21.794Z,13.33
2023-12-11T17:52:49.544Z,13.34
2023-12-11T17:55:17.343Z,13.74
2023-12-11T17:57:46.551Z,13.49
2023-12-11T18:00:15.350Z,13.72
2023-12-11T18:02:43.038Z,13.55
2023-12-11T18:05:10.979Z,13.44
2023-12-11T18:07:38.845Z,13.34
2023-12-11T18:10:06.916Z,13.22
2023-12-11T18:12:34.663Z,13.50
2023-12-11T18:15:04.427Z,13.55
2023-12-11T18:17:32.236Z,13.44
2023-12-11T18:20:00.261Z,13.39
2023-12-11T18:22:28.175Z,13.46
2023-12-11T18:24:55.993Z,13.50
2023-12-11T18:27:23.728Z,13.43
2023-12-11T18:29:51.628Z,13.41
2023-12-11T18:32:20.690Z,13.37
2023-12-11T18:34:54.525Z,13.57
2023-12-11T18:37:22.939Z,13.26
2023-12-11T18:39:50.680Z,13.09
2023-12-11T18:42:18.553Z,13.32
2023-12-11T18:44:46.305Z,13.07
2023-12-11T18:47:14.125Z,13.14
2023-12-11T18:49:43.846Z,13.38
2023-12-11T18:52:11.822Z,13.59
2023-12-11T18:54:40.085Z,13.34
2023-12-11T18:57:08.158Z,13.63
2023-12-11T18:59:36.067Z,13.35
2023-12-11T19:02:04.302Z,13.69
2023-12-11T19:04:32.206Z,13.75
2023-12-11T19:07:01.516Z,13.72
2023-12-11T19:09:29.248Z,13.86
2023-12-11T19:11:57.258Z,13.94
2023-12-11T19:14:25.033Z,13.89
2023-12-11T19:16:52.807Z,13.69
2023-12-11T19:19:20.652Z,13.48
2023-12-11T19:21:48.434Z,14.01
2023-12-11T19:24:17.502Z,14.15
2023-12-11T19:26:45.288Z,14.08
2023-12-11T19:29:13.090Z,13.69
2023-12-11T19:31:42.088Z,14.10
2023-12-11T19:34:10.795Z,13.94
2023-12-11T19:36:40.662Z,13.91
2023-12-11T19:39:08.575Z,13.80
2023-12-11T19:41:37.671Z,14.05
2023-12-11T19:44:05.346Z,14.19
2023-12-11T19:46:33.086Z,14.13
2023-12-11T19:49:00.934Z,13.71
2023-12-11T19:51:28.686Z,14.04
2023-12-11T19:53:56.864Z,14.07
2023-12-11T19:56:24.581Z,14.41
2023-12-11T19:58:53.724Z,14.02
2023-12-11T20:01:28.166Z,14.33
2023-12-11T20:03:56.351Z,14.06
2023-12-11T20:06:24.756Z,13.52
2023-12-11T20:08:52.513Z,13.96
2023-12-11T20:11:21.136Z,14.02
2023-12-11T20:13:50.730Z,14.23
2023-12-11T20:16:19.920Z,14.31
2023-12-11T20:18:47.799Z,14.54
2023-12-11T20:21:15.536Z,14.62
2023-12-11T20:23:43.289Z,14.32
2023-12-11T20:26:11.030Z,13.81
2023-12-11T20:28:38.734Z,13.55
2023-12-11T20:31:07.909Z,13.02
2023-12-11T20:33:38.137Z,13.56
2023-12-11T20:36:13.829Z,13.32
2023-12-11T20:38:41.655Z,13.23
2023-12-11T20:41:17.631Z,13.59
2023-12-11T20:43:45.377Z,13.45
2023-12-11T20:46:13.120Z,13.57
2023-12-11T20:48:42.228Z,13.44
2023-12-11T20:51:09.984Z,13.49
2023-12-11T20:53:37.658Z,13.11
2023-12-11T20:56:05.914Z,13.36
2023-12-11T20:58:34.717Z,13.39
2023-12-11T21:01:02.519Z,13.47
2023-12-11T21:03:30.328Z,13.51
2023-12-11T21:05:59.479Z,13.76
2023-12-11T21:08:27.284Z,13.75
2023-12-11T21:10:54.971Z,13.95
2023-12-11T21:13:22.737Z,14.09
2023-12-11T21:15:53.024Z,14.02
2023-12-11T21:18:21.822Z,14.03
2023-12-11T21:20:49.541Z,13.82
2023-12-11T21:23:18.590Z,13.86
2023-12-11T21:25:46.438Z,13.66
2023-12-11T21:28:14.314Z,13.34
2023-12-11T21:30:42.266Z,13.34
2023-12-11T21:33:10.071Z,13.24
2023-12-11T21:35:37.803Z,13.43
2023-12-11T21:38:05.519Z,13.43
2023-12-11T21:40:34.596Z,13.12
2023-12-11T21:43:02.365Z,13.07
2023-12-11T21:45:30.106Z,13.35
2023-12-11T21:47:57.869Z,13.52
2023-12-11T21:50:25.617Z,13.47
2023-12-11T21:52:53.284Z,13.41
2023-12-11T21:55:20.996Z,13.23
2023-12-11T21:57:50.106Z,13.33
2023-12-11T22:00:18.263Z,13.47
2023-12-11T22:02:45.972Z,13.43
2023-12-11T22:05:13.726Z,13.52
2023-12-11T22:07:41.766Z,13.44
2023-12-11T22:10:09.565Z,13.75
2023-12-11T22:12:37.289Z,13.49
2023-12-11T22:15:07.286Z,13.91
2023-12-11T22:17:35.380Z,13.65
2023-12-11T22:20:03.673Z,13.65
2023-12-11T22:22:31.500Z,14.15
2023-12-11T22:24:59.246Z,13.66
2023-12-11T22:27:26.979Z,13.70
2023-12-11T22:29:54.690Z,13.68
2023-12-11T22:32:23.726Z,13.52
2023-12-11T22:34:51.560Z,13.09
2023-12-11T22:37:19.471Z,13.45
2023-12-11T22:39:47.217Z,14.17
2023-12-11T22:42:14.975Z,13.85
2023-12-11T22:44:43.357Z,14.36
2023-12-11T22:47:12.241Z,14.24
2023-12-11T22:49:41.288Z,14.68
2023-12-11T22:52:09.082Z,14.43
2023-12-11T22:54:36.826Z,14.33
2023-12-11T22:57:04.956Z,14.39
2023-12-11T22:59:32.706Z,14.81
2023-12-11T23:02:03.423Z,14.95
2023-12-11T23:04:32.067Z,15.01
2023-12-11T23:07:01.161Z,15.17
2023-12-11T23:09:28.862Z,15.21
2023-12-11T23:11:56.545Z,14.30
2023-12-11T23:14:24.284Z,14.92
2023-12-11T23:16:51.998Z,14.54
2023-12-11T23:19:19.816Z,14.70
2023-12-11T23:21:50.027Z,14.34
2023-12-11T23:24:19.201Z,14.41
2023-12-11T23:26:46.901Z,14.56
2023-12-11T23:29:14.584Z,14.16
2023-12-11T23:31:42.294Z,14.21
2023-12-11T23:34:10.033Z,14.42
2023-12-11T23:36:37.773Z,14.56
2023-12-11T23:39:05.472Z,14.43
2023-12-11T23:41:37.503Z,14.09
2023-12-11T23:44:05.203Z,13.54
2023-12-11T23:46:32.973Z,13.90
2023-12-11T23:49:00.835Z,13.76
2023-12-11T23:51:28.544Z,13.40
2023-12-11T23:53:56.190Z,13.37
2023-12-11T23:56:23.881Z,13.16
2023-12-11T23:58:52.907Z,13.28
